createdAt,value
2022-10-15T00:03:08.303Z,10.43
2022-10-15T00:09:10.203Z,11.67
2022-10-15T00:15:12.618Z,11.67
2022-10-15T00:21:18.038Z,12.70
2022-10-15T00:27:20.038Z,13.33
2022-10-15T00:33:22.965Z,12.33
2022-10-15T00:39:24.992Z,12.00
2022-10-15T00:45:27.064Z,11.10
2022-10-15T00:51:36.938Z,11.10
2022-10-15T00:57:45.672Z,9.53
2022-10-15T01:03:47.820Z,12.60
2022-10-15T01:09:50.838Z,10.13
2022-10-15T01:16:20.699Z,12.20
2022-10-15T01:22:33.173Z,11.00
2022-10-15T01:28:43.394Z,11.10
2022-10-15T01:35:00.764Z,13.13
2022-10-15T01:47:32.694Z,12.17
2022-10-15T01:53:36.804Z,15.03
2022-10-15T01:59:39.040Z,11.67
2022-10-15T02:06:20.368Z,17.90
2022-10-15T02:12:38.608Z,10.60
2022-10-15T02:19:09.151Z,15.90
2022-10-15T02:25:20.996Z,14.60
2022-10-15T02:31:26.012Z,13.20
2022-10-15T02:37:29.399Z,13.17
2022-10-15T02:43:31.393Z,15.63
2022-10-15T02:49:33.301Z,14.20
2022-10-15T02:55:35.301Z,18.17
2022-10-15T03:01:37.185Z,15.03
2022-10-15T03:07:39.109Z,14.77
2022-10-15T03:13:41.582Z,13.47
2022-10-15T03:19:43.700Z,17.30
2022-10-15T03:25:45.559Z,13.67
2022-10-15T03:31:47.566Z,15.43
2022-10-15T03:37:49.426Z,16.00
2022-10-15T03:43:51.322Z,15.40
2022-10-15T03:56:18.752Z,19.27
2022-10-15T04:02:31.629Z,14.67
2022-10-15T04:09:04.470Z,14.10
2022-10-15T04:15:07.335Z,13.80
2022-10-15T04:21:11.591Z,18.03
2022-10-15T04:27:26.736Z,16.37
2022-10-15T04:33:32.137Z,15.43
2022-10-15T04:39:34.125Z,18.17
2022-10-15T04:45:35.983Z,15.23
2022-10-15T04:51:37.911Z,15.53
2022-10-15T04:57:39.774Z,20.60
2022-10-15T05:03:45.159Z,15.20
2022-10-15T05:09:52.889Z,15.73
2022-10-15T05:15:55.386Z,16.97
2022-10-15T05:21:57.547Z,16.63
2022-10-15T05:28:00.517Z,16.20
2022-10-15T05:34:15.551Z,13.27
2022-10-15T05:40:21.089Z,16.80
2022-10-15T05:46:24.762Z,12.90
2022-10-15T05:58:46.173Z,17.47
2022-10-15T06:04:49.379Z,14.67
2022-10-15T06:10:51.572Z,17.13
2022-10-15T06:23:19.836Z,12.93
2022-10-15T06:29:21.798Z,14.57
2022-10-15T06:35:25.238Z,14.37
2022-10-15T06:41:52.412Z,14.47
2022-10-15T06:47:54.356Z,12.87
2022-10-15T06:53:56.257Z,13.80
2022-10-15T06:59:58.945Z,9.63
2022-10-15T07:06:51.091Z,12.30
2022-10-15T07:12:54.946Z,11.30
2022-10-15T07:18:59.759Z,11.95
2022-10-15T07:25:45.048Z,12.00
2022-10-15T07:31:50.190Z,13.13
2022-10-15T07:38:02.239Z,10.33
2022-10-15T07:44:44.909Z,12.33
2022-10-15T07:50:46.806Z,10.43
2022-10-15T07:56:49.099Z,10.33
2022-10-15T08:02:51.012Z,12.43
2022-10-15T08:08:53.364Z,14.97
2022-10-15T08:14:55.345Z,24.10
2022-10-15T08:21:00.864Z,15.17
2022-10-15T08:27:04.947Z,63.83
2022-10-15T08:33:06.804Z,17.80
2022-10-15T08:39:10.328Z,13.80
2022-10-15T08:45:42.321Z,13.90
2022-10-15T08:58:38.223Z,12.57
2022-10-15T09:04:54.545Z,11.97
2022-10-15T09:11:22.533Z,9.20
2022-10-15T09:17:28.411Z,9.67
2022-10-15T09:23:33.689Z,8.33
2022-10-15T09:30:10.314Z,7.17
2022-10-15T09:36:31.598Z,6.80
2022-10-15T09:43:48.995Z,6.57
2022-10-15T09:49:52.530Z,6.90
2022-10-15T09:56:15.182Z,9.27
2022-10-15T10:02:24.153Z,7.17
2022-10-15T10:08:29.666Z,4.93
2022-10-15T10:14:36.863Z,4.60
2022-10-15T10:21:01.477Z,5.40
2022-10-15T10:27:17.571Z,5.27
2022-10-15T10:33:33.171Z,6.57
2022-10-15T10:39:39.215Z,4.93
2022-10-15T10:46:01.435Z,3.10
2022-10-15T10:52:04.440Z,3.20
2022-10-15T10:58:15.139Z,5.43
2022-10-15T11:04:25.981Z,2.53
2022-10-15T11:10:54.349Z,2.70
2022-10-15T11:17:00.026Z,2.20
2022-10-15T11:23:28.077Z,2.60
2022-10-15T11:29:39.041Z,1.90
2022-10-15T11:43:17.523Z,2.10
2022-10-15T11:49:43.656Z,2.30
2022-10-15T11:56:13.192Z,1.90
2022-10-15T12:02:39.335Z,2.70
2022-10-15T12:08:42.680Z,2.40
2022-10-15T12:15:40.706Z,1.87
2022-10-15T12:22:09.585Z,1.57
2022-10-15T12:28:27.097Z,2.60
2022-10-15T12:34:41.110Z,8.33
2022-10-15T12:40:43.329Z,1.10
2022-10-15T12:46:45.691Z,1.47
2022-10-15T12:53:25.367Z,7.17
2022-10-15T13:07:26.805Z,1.17
2022-10-15T13:13:30.191Z,2.33
2022-10-15T13:20:09.068Z,1.50
2022-10-15T13:26:27.311Z,1.03
2022-10-15T13:32:38.755Z,1.60
2022-10-15T13:38:43.994Z,2.13
2022-10-15T13:45:03.221Z,1.20
2022-10-15T13:51:06.244Z,1.20
2022-10-15T13:57:18.087Z,1.10
2022-10-15T14:03:27.194Z,2.33
2022-10-15T14:09:37.053Z,1.33
2022-10-15T14:15:45.032Z,1.10
2022-10-15T14:21:48.695Z,1.20
2022-10-15T14:27:50.926Z,1.00
2022-10-15T14:33:52.922Z,1.53
2022-10-15T14:40:09.747Z,0.90
2022-10-15T14:46:18.917Z,1.40
2022-10-15T14:52:22.856Z,0.70
2022-10-15T14:58:28.139Z,1.00
2022-10-15T15:04:40.967Z,5.17
2022-10-15T15:10:44.594Z,5.50
2022-10-15T15:16:46.510Z,1.00
2022-10-15T15:22:50.872Z,1.80
2022-10-15T15:28:53.005Z,1.33
2022-10-15T15:34:57.103Z,7.17
2022-10-15T15:41:24.881Z,0.90
2022-10-15T15:47:27.607Z,1.10
2022-10-15T15:53:30.029Z,0.97
2022-10-15T15:59:31.993Z,1.00
2022-10-15T16:06:06.492Z,5.77
2022-10-15T16:12:08.585Z,1.10
2022-10-15T16:18:12.086Z,1.50
2022-10-15T16:24:14.055Z,1.63
2022-10-15T16:30:16.436Z,4.07
2022-10-15T16:36:18.648Z,1.73
2022-10-15T16:42:20.689Z,6.50
2022-10-15T16:48:22.941Z,3.60
2022-10-15T16:54:27.705Z,6.70
2022-10-15T17:00:48.694Z,10.10
2022-10-15T17:13:09.883Z,3.63
2022-10-15T17:19:14.608Z,2.30
2022-10-15T17:25:22.087Z,2.73
2022-10-15T17:31:26.952Z,1.83
2022-10-15T17:44:19.200Z,1.90
2022-10-15T17:50:22.564Z,2.00
2022-10-15T17:56:28.500Z,5.87
2022-10-15T18:10:12.649Z,1.60
2022-10-15T18:16:14.821Z,2.80
2022-10-15T18:22:16.791Z,2.63
2022-10-15T18:28:19.551Z,2.35
2022-10-15T18:34:21.533Z,6.07
2022-10-15T18:40:23.409Z,5.60
2022-10-15T18:46:27.544Z,1.70
2022-10-15T18:52:39.421Z,1.53
2022-10-15T18:59:07.615Z,3.00
2022-10-15T19:12:55.967Z,7.53
2022-10-15T19:18:58.378Z,3.90
2022-10-15T19:25:00.423Z,1.57
2022-10-15T19:37:19.889Z,2.70
2022-10-15T19:43:23.552Z,1.10
2022-10-15T19:49:25.835Z,1.63
2022-10-15T20:02:54.106Z,1.57
2022-10-15T20:08:56.166Z,1.50
2022-10-15T20:14:58.199Z,3.97
2022-10-15T20:21:00.205Z,1.00
2022-10-15T20:27:02.144Z,0.90
2022-10-15T20:33:04.836Z,1.10
2022-10-15T20:39:07.357Z,1.87
2022-10-15T20:45:14.342Z,1.40
2022-10-15T20:51:18.810Z,1.93
2022-10-15T20:57:20.742Z,1.33
2022-10-15T21:03:22.786Z,2.17
2022-10-15T21:09:25.059Z,1.30
2022-10-15T21:15:27.417Z,1.77
2022-10-15T21:21:29.552Z,2.23
2022-10-15T21:27:31.467Z,1.60
2022-10-15T21:33:34.086Z,1.20
2022-10-15T21:39:36.038Z,1.90
2022-10-15T21:45:37.923Z,1.40
2022-10-15T21:51:40.745Z,1.63
2022-10-15T21:57:42.637Z,4.90
2022-10-15T22:03:45.794Z,1.50
2022-10-15T22:09:48.124Z,1.00
2022-10-15T22:15:50.124Z,3.80
2022-10-15T22:21:52.168Z,1.30
2022-10-15T22:27:57.232Z,1.20
2022-10-15T22:33:59.909Z,4.07
2022-10-15T22:40:03.380Z,1.40
2022-10-15T22:53:46.670Z,3.13
2022-10-15T22:59:48.553Z,3.87
2022-10-15T23:05:55.044Z,2.00
2022-10-15T23:11:57.042Z,2.27
2022-10-15T23:17:59.250Z,17.70
2022-10-15T23:24:02.169Z,1.90
2022-10-15T23:30:14.383Z,2.40
2022-10-15T23:36:25.007Z,3.00
2022-10-15T23:42:26.944Z,7.40
2022-10-15T23:48:29.145Z,3.97
2022-10-15T23:54:31.643Z,1.63
